sensor_id;sensor_type;location;lat;lon;timestamp;temperature;humidity
6462;DHT22;3264;42.862;25.098;2022-12-18T00:01:37;9.10;99.90
6462;DHT22;3264;42.862;25.098;2022-12-18T00:04:22;9.10;99.90
6462;DHT22;3264;42.862;25.098;2022-12-18T00:06:50;9.10;99.90
6462;DHT22;3264;42.862;25.098;2022-12-18T00:09:29;9.10;99.90
6462;DHT22;3264;42.862;25.098;2022-12-18T00:12:05;9.00;99.90
6462;DHT22;3264;42.862;25.098;2022-12-18T00:14:34;8.90;99.90
6462;DHT22;3264;42.862;25.098;2022-12-18T00:17:14;9.00;99.90
6462;DHT22;3264;42.862;25.098;2022-12-18T00:19:42;8.90;99.90
6462;DHT22;3264;42.862;25.098;2022-12-18T00:22:09;9.00;99.90
6462;DHT22;3264;42.862;25.098;2022-12-18T00:24:40;9.10;99.90
6462;DHT22;3264;42.862;25.098;2022-12-18T00:27:08;9.00;99.90
6462;DHT22;3264;42.862;25.098;2022-12-18T00:29:36;9.00;99.90
6462;DHT22;3264;42.862;25.098;2022-12-18T00:32:17;9.00;99.90
6462;DHT22;3264;42.862;25.098;2022-12-18T00:34:45;8.90;99.90
6462;DHT22;3264;42.862;25.098;2022-12-18T00:37:15;8.90;99.90
6462;DHT22;3264;42.862;25.098;2022-12-18T00:39:47;8.80;99.90
6462;DHT22;3264;42.862;25.098;2022-12-18T00:42:15;8.90;99.90
6462;DHT22;3264;42.862;25.098;2022-12-18T00:44:59;8.90;99.90
6462;DHT22;3264;42.862;25.098;2022-12-18T00:47:28;8.80;99.90
6462;DHT22;3264;42.862;25.098;2022-12-18T00:50:02;8.80;99.90
6462;DHT22;3264;42.862;25.098;2022-12-18T00:52:33;8.80;99.90
6462;DHT22;3264;42.862;25.098;2022-12-18T00:55:09;8.80;99.90
6462;DHT22;3264;42.862;25.098;2022-12-18T00:57:40;8.80;99.90
6462;DHT22;3264;42.862;25.098;2022-12-18T01:00:11;8.90;99.90
6462;DHT22;3264;42.862;25.098;2022-12-18T01:02:41;8.80;99.90
6462;DHT22;3264;42.862;25.098;2022-12-18T01:05:10;8.80;99.90
6462;DHT22;3264;42.862;25.098;2022-12-18T01:07:52;8.80;99.90
6462;DHT22;3264;42.862;25.098;2022-12-18T01:10:22;8.80;99.90
6462;DHT22;3264;42.862;25.098;2022-12-18T01:12:53;8.70;99.90
6462;DHT22;3264;42.862;25.098;2022-12-18T01:15:24;8.70;99.90
6462;DHT22;3264;42.862;25.098;2022-12-18T01:18:00;8.70;99.90
6462;DHT22;3264;42.862;25.098;2022-12-18T01:20:51;8.70;99.90
6462;DHT22;3264;42.862;25.098;2022-12-18T01:23:32;8.60;99.90
6462;DHT22;3264;42.862;25.098;2022-12-18T01:26:12;8.60;99.90
6462;DHT22;3264;42.862;25.098;2022-12-18T01:28:45;8.70;99.90
6462;DHT22;3264;42.862;25.098;2022-12-18T01:31:27;8.70;99.90
6462;DHT22;3264;42.862;25.098;2022-12-18T01:34:03;8.70;99.90
6462;DHT22;3264;42.862;25.098;2022-12-18T01:36:35;8.70;99.90
6462;DHT22;3264;42.862;25.098;2022-12-18T01:39:09;8.70;99.90
6462;DHT22;3264;42.862;25.098;2022-12-18T01:41:43;8.60;99.90
6462;DHT22;3264;42.862;25.098;2022-12-18T01:44:53;8.60;99.90
6462;DHT22;3264;42.862;25.098;2022-12-18T01:47:28;8.70;99.90
6462;DHT22;3264;42.862;25.098;2022-12-18T01:50:06;8.80;99.90
6462;DHT22;3264;42.862;25.098;2022-12-18T01:52:44;8.80;99.90
6462;DHT22;3264;42.862;25.098;2022-12-18T01:55:20;8.60;99.90
6462;DHT22;3264;42.862;25.098;2022-12-18T01:57:55;8.60;99.90
6462;DHT22;3264;42.862;25.098;2022-12-18T02:00:25;8.50;99.90
6462;DHT22;3264;42.862;25.098;2022-12-18T02:02:56;8.50;99.90
6462;DHT22;3264;42.862;25.098;2022-12-18T02:05:39;8.50;99.90
6462;DHT22;3264;42.862;25.098;2022-12-18T02:08:10;8.30;99.90
6462;DHT22;3264;42.862;25.098;2022-12-18T02:10:46;8.10;99.90
6462;DHT22;3264;42.862;25.098;2022-12-18T02:13:25;8.10;99.90
6462;DHT22;3264;42.862;25.098;2022-12-18T02:16:02;8.20;99.90
6462;DHT22;3264;42.862;25.098;2022-12-18T02:18:41;8.10;99.90
6462;DHT22;3264;42.862;25.098;2022-12-18T02:21:17;8.10;99.90
6462;DHT22;3264;42.862;25.098;2022-12-18T02:23:54;8.20;99.90
6462;DHT22;3264;42.862;25.098;2022-12-18T02:26:29;8.30;99.90
6462;DHT22;3264;42.862;25.098;2022-12-18T02:29:04;8.30;99.90
6462;DHT22;3264;42.862;25.098;2022-12-18T02:31:40;8.30;99.90
6462;DHT22;3264;42.862;25.098;2022-12-18T02:34:11;8.30;99.90
6462;DHT22;3264;42.862;25.098;2022-12-18T02:36:41;8.30;99.90
6462;DHT22;3264;42.862;25.098;2022-12-18T02:39:12;8.30;99.90
6462;DHT22;3264;42.862;25.098;2022-12-18T02:41:43;8.30;99.90
6462;DHT22;3264;42.862;25.098;2022-12-18T02:44:13;8.30;99.90
6462;DHT22;3264;42.862;25.098;2022-12-18T02:46:44;8.30;99.90
6462;DHT22;3264;42.862;25.098;2022-12-18T02:49:26;8.30;99.90
6462;DHT22;3264;42.862;25.098;2022-12-18T02:52:03;8.20;99.90
6462;DHT22;3264;42.862;25.098;2022-12-18T02:54:38;8.00;99.90
6462;DHT22;3264;42.862;25.098;2022-12-18T02:57:18;8.00;99.90
6462;DHT22;3264;42.862;25.098;2022-12-18T02:59:55;7.90;99.90
6462;DHT22;3264;42.862;25.098;2022-12-18T03:02:26;7.90;99.90
6462;DHT22;3264;42.862;25.098;2022-12-18T03:05:01;8.00;99.90
6462;DHT22;3264;42.862;25.098;2022-12-18T03:07:36;8.00;99.90
6462;DHT22;3264;42.862;25.098;2022-12-18T03:10:10;8.00;99.90
6462;DHT22;3264;42.862;25.098;2022-12-18T03:12:43;8.00;99.90
6462;DHT22;3264;42.862;25.098;2022-12-18T03:15:16;7.90;99.90
6462;DHT22;3264;42.862;25.098;2022-12-18T03:17:52;8.00;99.90
6462;DHT22;3264;42.862;25.098;2022-12-18T03:20:22;8.00;99.90
6462;DHT22;3264;42.862;25.098;2022-12-18T03:22:57;7.90;99.90
6462;DHT22;3264;42.862;25.098;2022-12-18T03:25:28;7.90;99.90
6462;DHT22;3264;42.862;25.098;2022-12-18T03:28:02;7.90;99.90
6462;DHT22;3264;42.862;25.098;2022-12-18T03:30:33;8.00;99.90
6462;DHT22;3264;42.862;25.098;2022-12-18T03:33:07;7.90;99.90
6462;DHT22;3264;42.862;25.098;2022-12-18T03:35:39;8.00;99.90
6462;DHT22;3264;42.862;25.098;2022-12-18T03:38:10;8.00;99.90
6462;DHT22;3264;42.862;25.098;2022-12-18T03:40:45;8.00;99.90
6462;DHT22;3264;42.862;25.098;2022-12-18T03:43:20;8.00;99.90
6462;DHT22;3264;42.862;25.098;2022-12-18T03:46:01;7.90;99.90
6462;DHT22;3264;42.862;25.098;2022-12-18T03:48:34;7.90;99.90
6462;DHT22;3264;42.862;25.098;2022-12-18T03:51:08;8.10;99.90
6462;DHT22;3264;42.862;25.098;2022-12-18T03:53:41;8.10;99.90
6462;DHT22;3264;42.862;25.098;2022-12-18T03:56:15;7.90;99.90
6462;DHT22;3264;42.862;25.098;2022-12-18T03:58:46;7.90;99.90
6462;DHT22;3264;42.862;25.098;2022-12-18T04:01:17;7.80;99.90
6462;DHT22;3264;42.862;25.098;2022-12-18T04:03:46;7.70;99.90
6462;DHT22;3264;42.862;25.098;2022-12-18T04:06:17;7.70;99.90
6462;DHT22;3264;42.862;25.098;2022-12-18T04:08:46;7.70;99.90
6462;DHT22;3264;42.862;25.098;2022-12-18T04:11:14;7.70;99.90
6462;DHT22;3264;42.862;25.098;2022-12-18T04:13:44;7.80;99.90
6462;DHT22;3264;42.862;25.098;2022-12-18T04:16:13;7.70;99.90
6462;DHT22;3264;42.862;25.098;2022-12-18T04:18:40;7.70;99.90
6462;DHT22;3264;42.862;25.098;2022-12-18T04:21:10;7.80;99.90
6462;DHT22;3264;42.862;25.098;2022-12-18T04:23:38;7.80;99.90
6462;DHT22;3264;42.862;25.098;2022-12-18T04:26:07;7.70;99.90
6462;DHT22;3264;42.862;25.098;2022-12-18T04:28:35;7.70;99.90
6462;DHT22;3264;42.862;25.098;2022-12-18T04:31:05;7.70;99.90
6462;DHT22;3264;42.862;25.098;2022-12-18T04:33:33;7.70;99.90
6462;DHT22;3264;42.862;25.098;2022-12-18T04:36:02;7.70;99.90
6462;DHT22;3264;42.862;25.098;2022-12-18T04:38:29;7.80;99.90
6462;DHT22;3264;42.862;25.098;2022-12-18T04:40:58;7.70;99.90
6462;DHT22;3264;42.862;25.098;2022-12-18T04:43:26;7.70;99.90
6462;DHT22;3264;42.862;25.098;2022-12-18T04:46:00;7.60;99.90
6462;DHT22;3264;42.862;25.098;2022-12-18T04:48:31;7.60;99.90
6462;DHT22;3264;42.862;25.098;2022-12-18T04:51:00;7.60;99.90
6462;DHT22;3264;42.862;25.098;2022-12-18T04:53:29;7.50;99.90
6462;DHT22;3264;42.862;25.098;2022-12-18T04:56:05;7.50;99.90
6462;DHT22;3264;42.862;25.098;2022-12-18T04:58:35;7.60;99.90
6462;DHT22;3264;42.862;25.098;2022-12-18T05:01:08;7.60;99.90
6462;DHT22;3264;42.862;25.098;2022-12-18T05:03:38;7.60;99.90
6462;DHT22;3264;42.862;25.098;2022-12-18T05:06:07;7.60;99.90
6462;DHT22;3264;42.862;25.098;2022-12-18T05:08:36;7.50;99.90
6462;DHT22;3264;42.862;25.098;2022-12-18T05:11:07;7.50;99.90
6462;DHT22;3264;42.862;25.098;2022-12-18T05:13:36;7.40;99.90
6462;DHT22;3264;42.862;25.098;2022-12-18T05:16:06;7.40;99.90
6462;DHT22;3264;42.862;25.098;2022-12-18T05:18:35;7.40;99.90
6462;DHT22;3264;42.862;25.098;2022-12-18T05:21:06;7.40;99.90
6462;DHT22;3264;42.862;25.098;2022-12-18T05:23:34;7.50;99.90
6462;DHT22;3264;42.862;25.098;2022-12-18T05:26:04;7.50;99.90
6462;DHT22;3264;42.862;25.098;2022-12-18T05:28:34;7.40;99.90
6462;DHT22;3264;42.862;25.098;2022-12-18T05:31:04;7.40;99.90
6462;DHT22;3264;42.862;25.098;2022-12-18T05:33:34;7.30;99.90
6462;DHT22;3264;42.862;25.098;2022-12-18T05:36:13;7.30;99.90
6462;DHT22;3264;42.862;25.098;2022-12-18T05:38:41;7.20;99.90
6462;DHT22;3264;42.862;25.098;2022-12-18T05:41:09;7.30;99.90
6462;DHT22;3264;42.862;25.098;2022-12-18T05:43:39;7.30;99.90
6462;DHT22;3264;42.862;25.098;2022-12-18T05:46:11;7.20;99.90
6462;DHT22;3264;42.862;25.098;2022-12-18T05:48:39;7.20;99.90
6462;DHT22;3264;42.862;25.098;2022-12-18T05:51:09;7.20;99.90
6462;DHT22;3264;42.862;25.098;2022-12-18T05:53:40;7.30;99.90
6462;DHT22;3264;42.862;25.098;2022-12-18T05:56:11;7.20;99.90
6462;DHT22;3264;42.862;25.098;2022-12-18T05:58:40;7.20;99.90
6462;DHT22;3264;42.862;25.098;2022-12-18T06:01:26;7.30;99.90
6462;DHT22;3264;42.862;25.098;2022-12-18T06:03:55;7.20;99.90
6462;DHT22;3264;42.862;25.098;2022-12-18T06:06:24;7.20;99.90
6462;DHT22;3264;42.862;25.098;2022-12-18T06:08:54;7.20;99.90
6462;DHT22;3264;42.862;25.098;2022-12-18T06:11:24;7.20;99.90
6462;DHT22;3264;42.862;25.098;2022-12-18T06:13:53;7.40;99.90
6462;DHT22;3264;42.862;25.098;2022-12-18T06:16:21;7.30;99.90
6462;DHT22;3264;42.862;25.098;2022-12-18T06:18:49;7.30;99.90
6462;DHT22;3264;42.862;25.098;2022-12-18T06:21:17;7.40;99.90
6462;DHT22;3264;42.862;25.098;2022-12-18T06:23:45;7.30;99.90
6462;DHT22;3264;42.862;25.098;2022-12-18T06:26:15;7.30;99.90
6462;DHT22;3264;42.862;25.098;2022-12-18T06:28:44;7.20;99.90
6462;DHT22;3264;42.862;25.098;2022-12-18T06:31:12;7.30;99.90
6462;DHT22;3264;42.862;25.098;2022-12-18T06:33:41;7.20;99.90
6462;DHT22;3264;42.862;25.098;2022-12-18T06:36:11;7.20;99.90
6462;DHT22;3264;42.862;25.098;2022-12-18T06:38:41;7.30;99.90
6462;DHT22;3264;42.862;25.098;2022-12-18T06:41:12;7.30;99.90
6462;DHT22;3264;42.862;25.098;2022-12-18T06:43:43;7.40;99.90
6462;DHT22;3264;42.862;25.098;2022-12-18T06:46:12;7.30;99.90
6462;DHT22;3264;42.862;25.098;2022-12-18T06:48:41;7.30;99.90
6462;DHT22;3264;42.862;25.098;2022-12-18T06:51:10;7.30;99.90
6462;DHT22;3264;42.862;25.098;2022-12-18T06:53:37;7.30;99.90
6462;DHT22;3264;42.862;25.098;2022-12-18T06:56:06;7.30;99.90
6462;DHT22;3264;42.862;25.098;2022-12-18T06:58:35;7.30;99.90
6462;DHT22;3264;42.862;25.098;2022-12-18T07:01:06;7.30;99.90
6462;DHT22;3264;42.862;25.098;2022-12-18T07:03:36;7.30;99.90
6462;DHT22;3264;42.862;25.098;2022-12-18T07:06:05;7.30;99.90
6462;DHT22;3264;42.862;25.098;2022-12-18T07:08:33;7.30;99.90
6462;DHT22;3264;42.862;25.098;2022-12-18T07:11:03;7.30;99.90
6462;DHT22;3264;42.862;25.098;2022-12-18T07:13:32;7.30;99.90
6462;DHT22;3264;42.862;25.098;2022-12-18T07:16:12;7.30;99.90
6462;DHT22;3264;42.862;25.098;2022-12-18T07:18:41;7.20;99.90
6462;DHT22;3264;42.862;25.098;2022-12-18T07:21:11;7.30;99.90
6462;DHT22;3264;42.862;25.098;2022-12-18T07:23:39;7.30;99.90
6462;DHT22;3264;42.862;25.098;2022-12-18T07:26:09;7.30;99.90
6462;DHT22;3264;42.862;25.098;2022-12-18T07:28:39;7.30;99.90
6462;DHT22;3264;42.862;25.098;2022-12-18T07:31:15;7.30;99.90
6462;DHT22;3264;42.862;25.098;2022-12-18T07:33:45;7.40;99.90
6462;DHT22;3264;42.862;25.098;2022-12-18T07:36:14;7.40;99.90
6462;DHT22;3264;42.862;25.098;2022-12-18T07:38:42;7.40;99.90
6462;DHT22;3264;42.862;25.098;2022-12-18T07:41:11;7.40;99.90
6462;DHT22;3264;42.862;25.098;2022-12-18T07:43:40;7.60;99.90
6462;DHT22;3264;42.862;25.098;2022-12-18T07:46:15;7.70;99.90
6462;DHT22;3264;42.862;25.098;2022-12-18T07:48:44;7.70;99.90
6462;DHT22;3264;42.862;25.098;2022-12-18T07:51:12;7.80;99.90
6462;DHT22;3264;42.862;25.098;2022-12-18T07:53:41;7.90;99.90
6462;DHT22;3264;42.862;25.098;2022-12-18T07:56:10;7.90;99.90
6462;DHT22;3264;42.862;25.098;2022-12-18T07:58:38;7.90;99.90
6462;DHT22;3264;42.862;25.098;2022-12-18T08:01:07;8.00;99.90
6462;DHT22;3264;42.862;25.098;2022-12-18T08:03:38;8.00;99.90
6462;DHT22;3264;42.862;25.098;2022-12-18T08:06:07;8.00;99.90
6462;DHT22;3264;42.862;25.098;2022-12-18T08:08:37;7.90;99.90
6462;DHT22;3264;42.862;25.098;2022-12-18T08:11:06;7.90;99.90
6462;DHT22;3264;42.862;25.098;2022-12-18T08:13:34;7.90;99.90
6462;DHT22;3264;42.862;25.098;2022-12-18T08:16:25;7.90;99.90
6462;DHT22;3264;42.862;25.098;2022-12-18T08:18:55;7.90;99.90
6462;DHT22;3264;42.862;25.098;2022-12-18T08:21:26;7.90;99.90
6462;DHT22;3264;42.862;25.098;2022-12-18T08:23:55;7.80;99.90
6462;DHT22;3264;42.862;25.098;2022-12-18T08:26:24;7.90;99.90
6462;DHT22;3264;42.862;25.098;2022-12-18T08:28:54;8.00;99.90
6462;DHT22;3264;42.862;25.098;2022-12-18T08:31:23;8.00;99.90
6462;DHT22;3264;42.862;25.098;2022-12-18T08:33:52;8.10;99.90
6462;DHT22;3264;42.862;25.098;2022-12-18T08:36:22;8.10;99.90
6462;DHT22;3264;42.862;25.098;2022-12-18T08:38:50;8.10;99.90
6462;DHT22;3264;42.862;25.098;2022-12-18T08:41:18;8.20;99.90
6462;DHT22;3264;42.862;25.098;2022-12-18T08:43:47;8.30;99.90
6462;DHT22;3264;42.862;25.098;2022-12-18T08:46:35;8.20;99.90
6462;DHT22;3264;42.862;25.098;2022-12-18T08:49:03;8.00;99.90
6462;DHT22;3264;42.862;25.098;2022-12-18T08:51:32;8.20;99.90
6462;DHT22;3264;42.862;25.098;2022-12-18T08:54:01;8.30;99.90
6462;DHT22;3264;42.862;25.098;2022-12-18T08:56:39;8.40;99.90
6462;DHT22;3264;42.862;25.098;2022-12-18T08:59:09;8.40;99.90
6462;DHT22;3264;42.862;25.098;2022-12-18T09:01:36;8.50;99.90
6462;DHT22;3264;42.862;25.098;2022-12-18T09:04:05;8.20;99.90
6462;DHT22;3264;42.862;25.098;2022-12-18T09:06:34;8.40;99.90
6462;DHT22;3264;42.862;25.098;2022-12-18T09:09:04;8.30;99.90
6462;DHT22;3264;42.862;25.098;2022-12-18T09:11:33;8.30;99.90
6462;DHT22;3264;42.862;25.098;2022-12-18T09:14:01;8.30;99.90
6462;DHT22;3264;42.862;25.098;2022-12-18T09:16:29;8.50;99.90
6462;DHT22;3264;42.862;25.098;2022-12-18T09:19:03;8.40;99.90
6462;DHT22;3264;42.862;25.098;2022-12-18T09:21:34;8.50;99.90
6462;DHT22;3264;42.862;25.098;2022-12-18T09:24:08;8.50;99.90
6462;DHT22;3264;42.862;25.098;2022-12-18T09:26:39;8.50;99.90
6462;DHT22;3264;42.862;25.098;2022-12-18T09:29:07;8.50;99.90
6462;DHT22;3264;42.862;25.098;2022-12-18T09:31:39;8.40;99.90
6462;DHT22;3264;42.862;25.098;2022-12-18T09:34:08;8.30;99.90
6462;DHT22;3264;42.862;25.098;2022-12-18T09:36:37;8.40;99.90
6462;DHT22;3264;42.862;25.098;2022-12-18T09:39:05;8.60;99.90
6462;DHT22;3264;42.862;25.098;2022-12-18T09:41:40;8.70;99.90
6462;DHT22;3264;42.862;25.098;2022-12-18T09:44:20;8.80;99.90
6462;DHT22;3264;42.862;25.098;2022-12-18T09:46:55;8.70;99.90
6462;DHT22;3264;42.862;25.098;2022-12-18T09:49:28;8.80;99.90
6462;DHT22;3264;42.862;25.098;2022-12-18T09:52:01;8.80;99.90
6462;DHT22;3264;42.862;25.098;2022-12-18T09:54:39;8.80;99.90
6462;DHT22;3264;42.862;25.098;2022-12-18T09:57:13;8.80;99.90
6462;DHT22;3264;42.862;25.098;2022-12-18T09:59:46;8.80;99.90
6462;DHT22;3264;42.862;25.098;2022-12-18T10:02:19;8.60;99.90
6462;DHT22;3264;42.862;25.098;2022-12-18T10:05:00;8.60;99.90
6462;DHT22;3264;42.862;25.098;2022-12-18T10:07:41;8.60;99.90
6462;DHT22;3264;42.862;25.098;2022-12-18T10:10:18;8.50;99.90
6462;DHT22;3264;42.862;25.098;2022-12-18T10:12:55;8.40;99.90
6462;DHT22;3264;42.862;25.098;2022-12-18T10:15:29;8.50;99.90
6462;DHT22;3264;42.862;25.098;2022-12-18T10:18:10;8.40;99.90
6462;DHT22;3264;42.862;25.098;2022-12-18T10:20:45;8.50;99.90
6462;DHT22;3264;42.862;25.098;2022-12-18T10:23:19;8.60;99.90
6462;DHT22;3264;42.862;25.098;2022-12-18T10:25:54;8.70;99.90
6462;DHT22;3264;42.862;25.098;2022-12-18T10:28:24;8.80;99.90
6462;DHT22;3264;42.862;25.098;2022-12-18T10:30:54;8.90;99.90
6462;DHT22;3264;42.862;25.098;2022-12-18T10:33:24;8.80;99.10
6462;DHT22;3264;42.862;25.098;2022-12-18T10:35:53;8.70;99.90
6462;DHT22;3264;42.862;25.098;2022-12-18T10:38:25;8.60;99.90
6462;DHT22;3264;42.862;25.098;2022-12-18T10:40:56;8.70;99.90
6462;DHT22;3264;42.862;25.098;2022-12-18T10:43:27;8.60;99.90
6462;DHT22;3264;42.862;25.098;2022-12-18T10:46:02;8.80;99.90
6462;DHT22;3264;42.862;25.098;2022-12-18T10:48:31;8.90;99.90
6462;DHT22;3264;42.862;25.098;2022-12-18T10:51:00;8.60;97.50
6462;DHT22;3264;42.862;25.098;2022-12-18T10:53:31;8.70;98.90
6462;DHT22;3264;42.862;25.098;2022-12-18T10:56:03;8.80;99.50
6462;DHT22;3264;42.862;25.098;2022-12-18T10:58:33;8.50;94.80
6462;DHT22;3264;42.862;25.098;2022-12-18T11:01:06;8.60;95.60
6462;DHT22;3264;42.862;25.098;2022-12-18T11:03:37;8.60;95.40
6462;DHT22;3264;42.862;25.098;2022-12-18T11:06:09;8.60;94.80
6462;DHT22;3264;42.862;25.098;2022-12-18T11:08:40;8.50;96.70
6462;DHT22;3264;42.862;25.098;2022-12-18T11:11:20;8.70;96.20
6462;DHT22;3264;42.862;25.098;2022-12-18T11:13:58;8.60;93.70
6462;DHT22;3264;42.862;25.098;2022-12-18T11:16:27;8.50;91.30
6462;DHT22;3264;42.862;25.098;2022-12-18T11:19:13;8.50;92.10
6462;DHT22;3264;42.862;25.098;2022-12-18T11:21:43;8.50;92.60
6462;DHT22;3264;42.862;25.098;2022-12-18T11:24:20;8.50;93.90
6462;DHT22;3264;42.862;25.098;2022-12-18T11:26:49;8.60;92.70
6462;DHT22;3264;42.862;25.098;2022-12-18T11:29:22;8.70;93.30
6462;DHT22;3264;42.862;25.098;2022-12-18T11:31:51;8.50;91.50
6462;DHT22;3264;42.862;25.098;2022-12-18T11:34:27;8.30;87.30
6462;DHT22;3264;42.862;25.098;2022-12-18T11:36:58;8.40;90.00
6462;DHT22;3264;42.862;25.098;2022-12-18T11:39:34;8.30;86.90
6462;DHT22;3264;42.862;25.098;2022-12-18T11:42:11;8.20;87.30
6462;DHT22;3264;42.862;25.098;2022-12-18T11:44:45;8.20;82.80
6462;DHT22;3264;42.862;25.098;2022-12-18T11:47:25;8.20;83.70
6462;DHT22;3264;42.862;25.098;2022-12-18T11:49:55;8.50;83.70
6462;DHT22;3264;42.862;25.098;2022-12-18T11:52:30;8.60;86.00
6462;DHT22;3264;42.862;25.098;2022-12-18T11:55:11;8.60;89.70
6462;DHT22;3264;42.862;25.098;2022-12-18T11:57:50;8.70;85.80
6462;DHT22;3264;42.862;25.098;2022-12-18T12:00:22;8.70;87.70
6462;DHT22;3264;42.862;25.098;2022-12-18T12:03:15;8.10;81.00
6462;DHT22;3264;42.862;25.098;2022-12-18T12:06:00;8.20;82.10
6462;DHT22;3264;42.862;25.098;2022-12-18T12:08:40;8.10;79.60
6462;DHT22;3264;42.862;25.098;2022-12-18T12:11:20;8.00;78.50
6462;DHT22;3264;42.862;25.098;2022-12-18T12:14:00;8.20;77.70
6462;DHT22;3264;42.862;25.098;2022-12-18T12:16:36;8.10;77.00
6462;DHT22;3264;42.862;25.098;2022-12-18T12:19:21;8.20;79.20
6462;DHT22;3264;42.862;25.098;2022-12-18T12:21:55;8.00;81.10
6462;DHT22;3264;42.862;25.098;2022-12-18T12:24:33;8.10;82.40
6462;DHT22;3264;42.862;25.098;2022-12-18T12:27:13;8.10;81.20
6462;DHT22;3264;42.862;25.098;2022-12-18T12:29:55;8.10;82.30
6462;DHT22;3264;42.862;25.098;2022-12-18T12:32:39;8.10;80.80
6462;DHT22;3264;42.862;25.098;2022-12-18T12:35:17;8.10;84.90
6462;DHT22;3264;42.862;25.098;2022-12-18T12:38:00;8.00;83.50
6462;DHT22;3264;42.862;25.098;2022-12-18T12:40:36;8.00;80.50
6462;DHT22;3264;42.862;25.098;2022-12-18T12:43:21;8.10;81.10
6462;DHT22;3264;42.862;25.098;2022-12-18T12:45:53;8.00;81.30
6462;DHT22;3264;42.862;25.098;2022-12-18T12:48:31;8.00;82.60
6462;DHT22;3264;42.862;25.098;2022-12-18T12:51:07;8.10;83.20
6462;DHT22;3264;42.862;25.098;2022-12-18T12:53:48;8.10;83.90
6462;DHT22;3264;42.862;25.098;2022-12-18T12:56:19;7.90;80.10
6462;DHT22;3264;42.862;25.098;2022-12-18T12:58:58;8.00;83.10
6462;DHT22;3264;42.862;25.098;2022-12-18T13:01:37;7.90;84.20
6462;DHT22;3264;42.862;25.098;2022-12-18T13:04:21;7.90;79.90
6462;DHT22;3264;42.862;25.098;2022-12-18T13:06:55;7.90;80.00
6462;DHT22;3264;42.862;25.098;2022-12-18T13:09:31;7.90;82.90
6462;DHT22;3264;42.862;25.098;2022-12-18T13:12:03;7.90;81.40
6462;DHT22;3264;42.862;25.098;2022-12-18T13:14:50;7.90;80.20
6462;DHT22;3264;42.862;25.098;2022-12-18T13:17:30;8.00;81.50
6462;DHT22;3264;42.862;25.098;2022-12-18T13:20:08;8.00;79.40
6462;DHT22;3264;42.862;25.098;2022-12-18T13:22:39;8.00;80.00
6462;DHT22;3264;42.862;25.098;2022-12-18T13:25:33;8.10;84.10
6462;DHT22;3264;42.862;25.098;2022-12-18T13:28:05;8.10;83.20
6462;DHT22;3264;42.862;25.098;2022-12-18T13:31:02;8.10;83.80
6462;DHT22;3264;42.862;25.098;2022-12-18T13:33:48;7.90;84.90
6462;DHT22;3264;42.862;25.098;2022-12-18T13:36:32;8.00;86.30
6462;DHT22;3264;42.862;25.098;2022-12-18T13:39:22;8.00;85.30
6462;DHT22;3264;42.862;25.098;2022-12-18T13:41:53;8.00;86.90
6462;DHT22;3264;42.862;25.098;2022-12-18T13:44:31;8.00;84.60
6462;DHT22;3264;42.862;25.098;2022-12-18T13:47:02;8.10;84.70
6462;DHT22;3264;42.862;25.098;2022-12-18T13:49:37;8.10;84.00
6462;DHT22;3264;42.862;25.098;2022-12-18T13:52:17;8.10;89.50
6462;DHT22;3264;42.862;25.098;2022-12-18T13:54:51;8.00;88.00
6462;DHT22;3264;42.862;25.098;2022-12-18T13:57:27;8.10;86.50
6462;DHT22;3264;42.862;25.098;2022-12-18T13:59:57;8.10;88.30
6462;DHT22;3264;42.862;25.098;2022-12-18T14:02:28;7.90;86.40
6462;DHT22;3264;42.862;25.098;2022-12-18T14:04:55;7.90;89.30
6462;DHT22;3264;42.862;25.098;2022-12-18T14:07:25;7.80;90.20
6462;DHT22;3264;42.862;25.098;2022-12-18T14:09:55;7.70;88.90
6462;DHT22;3264;42.862;25.098;2022-12-18T14:12:28;7.60;88.20
6462;DHT22;3264;42.862;25.098;2022-12-18T14:15:22;7.60;89.70
6462;DHT22;3264;42.862;25.098;2022-12-18T14:17:57;7.50;90.00
6462;DHT22;3264;42.862;25.098;2022-12-18T14:20:28;7.30;90.40
6462;DHT22;3264;42.862;25.098;2022-12-18T14:22:57;7.20;90.40
6462;DHT22;3264;42.862;25.098;2022-12-18T14:25:26;7.20;90.40
6462;DHT22;3264;42.862;25.098;2022-12-18T14:28:08;7.10;90.90
6462;DHT22;3264;42.862;25.098;2022-12-18T14:30:40;7.10;90.10
6462;DHT22;3264;42.862;25.098;2022-12-18T14:33:12;7.10;90.00
6462;DHT22;3264;42.862;25.098;2022-12-18T14:35:43;7.10;90.60
6462;DHT22;3264;42.862;25.098;2022-12-18T14:38:27;7.00;88.60
6462;DHT22;3264;42.862;25.098;2022-12-18T14:40:57;6.90;90.00
6462;DHT22;3264;42.862;25.098;2022-12-18T14:43:27;6.90;89.30
6462;DHT22;3264;42.862;25.098;2022-12-18T14:45:56;6.90;90.00
6462;DHT22;3264;42.862;25.098;2022-12-18T14:48:36;6.70;89.20
6462;DHT22;3264;42.862;25.098;2022-12-18T14:51:06;6.70;90.00
6462;DHT22;3264;42.862;25.098;2022-12-18T14:53:37;6.60;90.00
6462;DHT22;3264;42.862;25.098;2022-12-18T14:56:15;6.60;87.70
6462;DHT22;3264;42.862;25.098;2022-12-18T14:58:45;6.70;87.60
6462;DHT22;3264;42.862;25.098;2022-12-18T15:01:19;6.70;87.70
6462;DHT22;3264;42.862;25.098;2022-12-18T15:03:50;6.60;89.60
6462;DHT22;3264;42.862;25.098;2022-12-18T15:06:30;6.60;87.60
6462;DHT22;3264;42.862;25.098;2022-12-18T15:09:00;6.60;86.40
6462;DHT22;3264;42.862;25.098;2022-12-18T15:11:42;6.70;87.60
6462;DHT22;3264;42.862;25.098;2022-12-18T15:14:31;6.60;84.90
6462;DHT22;3264;42.862;25.098;2022-12-18T15:17:03;6.60;87.50
6462;DHT22;3264;42.862;25.098;2022-12-18T15:19:37;6.60;85.80
6462;DHT22;3264;42.862;25.098;2022-12-18T15:22:19;6.70;88.60
6462;DHT22;3264;42.862;25.098;2022-12-18T15:24:47;6.60;87.90
6462;DHT22;3264;42.862;25.098;2022-12-18T15:27:27;6.60;86.20
6462;DHT22;3264;42.862;25.098;2022-12-18T15:30:17;6.50;86.60
6462;DHT22;3264;42.862;25.098;2022-12-18T15:32:46;6.50;86.70
6462;DHT22;3264;42.862;25.098;2022-12-18T15:35:19;6.40;84.80
6462;DHT22;3264;42.862;25.098;2022-12-18T15:37:47;6.40;87.30
6462;DHT22;3264;42.862;25.098;2022-12-18T15:40:16;6.50;87.70
6462;DHT22;3264;42.862;25.098;2022-12-18T15:42:46;6.40;86.50
6462;DHT22;3264;42.862;25.098;2022-12-18T15:45:31;6.40;86.50
6462;DHT22;3264;42.862;25.098;2022-12-18T15:48:00;6.30;88.00
6462;DHT22;3264;42.862;25.098;2022-12-18T15:50:33;6.20;88.70
6462;DHT22;3264;42.862;25.098;2022-12-18T15:53:00;6.00;89.10
6462;DHT22;3264;42.862;25.098;2022-12-18T15:55:43;6.00;89.40
6462;DHT22;3264;42.862;25.098;2022-12-18T15:58:28;5.90;86.10
6462;DHT22;3264;42.862;25.098;2022-12-18T16:00:58;5.90;87.10
6462;DHT22;3264;42.862;25.098;2022-12-18T16:03:35;6.00;88.30
6462;DHT22;3264;42.862;25.098;2022-12-18T16:06:05;6.00;89.50
6462;DHT22;3264;42.862;25.098;2022-12-18T16:08:34;6.00;89.80
6462;DHT22;3264;42.862;25.098;2022-12-18T16:11:02;5.90;90.00
6462;DHT22;3264;42.862;25.098;2022-12-18T16:13:31;5.90;90.10
6462;DHT22;3264;42.862;25.098;2022-12-18T16:15:59;5.80;87.50
6462;DHT22;3264;42.862;25.098;2022-12-18T16:18:27;5.80;90.40
6462;DHT22;3264;42.862;25.098;2022-12-18T16:20:55;5.70;90.60
6462;DHT22;3264;42.862;25.098;2022-12-18T16:23:25;5.70;92.90
6462;DHT22;3264;42.862;25.098;2022-12-18T16:25:54;5.70;91.90
6462;DHT22;3264;42.862;25.098;2022-12-18T16:28:22;5.70;92.50
6462;DHT22;3264;42.862;25.098;2022-12-18T16:30:50;5.70;93.40
6462;DHT22;3264;42.862;25.098;2022-12-18T16:33:18;5.60;94.20
6462;DHT22;3264;42.862;25.098;2022-12-18T16:35:52;5.40;94.00
6462;DHT22;3264;42.862;25.098;2022-12-18T16:38:20;5.30;94.70
6462;DHT22;3264;42.862;25.098;2022-12-18T16:40:49;5.30;96.70